sensor_id;sensor_type;location;lat;lon;timestamp;P1;durP1;ratioP1;P2;durP2;ratioP2
38465;SDS011;24244;51.950;5.902;2023-04-01T00:01:59;1.67;;;1.10;;
38465;SDS011;24244;51.950;5.902;2023-04-01T00:04:26;3.40;;;0.98;;
38465;SDS011;24244;51.950;5.902;2023-04-01T00:06:53;2.13;;;0.45;;
38465;SDS011;24244;51.950;5.902;2023-04-01T00:09:20;2.08;;;0.47;;
38465;SDS011;24244;51.950;5.902;2023-04-01T00:11:47;1.63;;;0.60;;
38465;SDS011;24244;51.950;5.902;2023-04-01T00:14:15;1.75;;;0.50;;
38465;SDS011;24244;51.950;5.902;2023-04-01T00:16:41;1.38;;;0.38;;
38465;SDS011;24244;51.950;5.902;2023-04-01T00:19:08;0.98;;;0.47;;
38465;SDS011;24244;51.950;5.902;2023-04-01T00:21:35;1.98;;;0.82;;
38465;SDS011;24244;51.950;5.902;2023-04-01T00:24:03;2.20;;;0.65;;
38465;SDS011;24244;51.950;5.902;2023-04-01T00:26:30;1.58;;;0.60;;
38465;SDS011;24244;51.950;5.902;2023-04-01T00:28:57;2.78;;;0.98;;
38465;SDS011;24244;51.950;5.902;2023-04-01T00:31:26;1.70;;;1.00;;
38465;SDS011;24244;51.950;5.902;2023-04-01T00:33:53;3.42;;;0.93;;
38465;SDS011;24244;51.950;5.902;2023-04-01T00:36:21;1.48;;;0.55;;
38465;SDS011;24244;51.950;5.902;2023-04-01T00:38:49;2.20;;;0.60;;
38465;SDS011;24244;51.950;5.902;2023-04-01T00:41:17;2.28;;;1.08;;
38465;SDS011;24244;51.950;5.902;2023-04-01T00:43:45;2.80;;;1.17;;
38465;SDS011;24244;51.950;5.902;2023-04-01T00:46:14;2.42;;;0.95;;
38465;SDS011;24244;51.950;5.902;2023-04-01T00:48:43;4.00;;;1.70;;
38465;SDS011;24244;51.950;5.902;2023-04-01T00:51:12;3.17;;;1.00;;
38465;SDS011;24244;51.950;5.902;2023-04-01T00:53:43;2.35;;;1.52;;
38465;SDS011;24244;51.950;5.902;2023-04-01T00:56:12;3.30;;;1.50;;
38465;SDS011;24244;51.950;5.902;2023-04-01T00:58:42;2.78;;;1.17;;
38465;SDS011;24244;51.950;5.902;2023-04-01T01:01:13;3.45;;;1.88;;
38465;SDS011;24244;51.950;5.902;2023-04-01T01:03:40;3.10;;;1.90;;
38465;SDS011;24244;51.950;5.902;2023-04-01T01:06:13;3.95;;;1.92;;
38465;SDS011;24244;51.950;5.902;2023-04-01T01:08:57;4.13;;;2.00;;
38465;SDS011;24244;51.950;5.902;2023-04-01T01:11:35;3.53;;;1.98;;
38465;SDS011;24244;51.950;5.902;2023-04-01T01:14:11;3.20;;;1.83;;
38465;SDS011;24244;51.950;5.902;2023-04-01T01:16:52;4.68;;;2.15;;
38465;SDS011;24244;51.950;5.902;2023-04-01T01:19:32;5.07;;;2.35;;
38465;SDS011;24244;51.950;5.902;2023-04-01T01:22:23;5.43;;;3.00;;
38465;SDS011;24244;51.950;5.902;2023-04-01T01:27:58;4.45;;;2.33;;
38465;SDS011;24244;51.950;5.902;2023-04-01T01:30:43;4.82;;;2.25;;
38465;SDS011;24244;51.950;5.902;2023-04-01T01:33:25;3.42;;;2.03;;
38465;SDS011;24244;51.950;5.902;2023-04-01T01:36:03;6.53;;;3.28;;
38465;SDS011;24244;51.950;5.902;2023-04-01T01:38:33;4.43;;;2.60;;
38465;SDS011;24244;51.950;5.902;2023-04-01T01:41:01;5.70;;;2.08;;
38465;SDS011;24244;51.950;5.902;2023-04-01T01:43:31;6.43;;;3.42;;
38465;SDS011;24244;51.950;5.902;2023-04-01T01:46:03;4.82;;;2.83;;
38465;SDS011;24244;51.950;5.902;2023-04-01T01:48:34;5.00;;;2.90;;
38465;SDS011;24244;51.950;5.902;2023-04-01T01:51:03;4.30;;;2.53;;
38465;SDS011;24244;51.950;5.902;2023-04-01T01:53:32;4.32;;;3.03;;
38465;SDS011;24244;51.950;5.902;2023-04-01T01:56:00;5.45;;;2.72;;
38465;SDS011;24244;51.950;5.902;2023-04-01T01:58:27;4.32;;;2.28;;
38465;SDS011;24244;51.950;5.902;2023-04-01T02:00:57;5.30;;;2.95;;
38465;SDS011;24244;51.950;5.902;2023-04-01T02:03:28;4.63;;;2.40;;
38465;SDS011;24244;51.950;5.902;2023-04-01T02:05:59;4.90;;;2.65;;
38465;SDS011;24244;51.950;5.902;2023-04-01T02:08:30;4.57;;;2.22;;
38465;SDS011;24244;51.950;5.902;2023-04-01T02:11:03;4.78;;;2.30;;
38465;SDS011;24244;51.950;5.902;2023-04-01T02:13:33;4.95;;;1.73;;
38465;SDS011;24244;51.950;5.902;2023-04-01T02:16:06;6.20;;;2.42;;
38465;SDS011;24244;51.950;5.902;2023-04-01T02:18:38;5.90;;;2.00;;
38465;SDS011;24244;51.950;5.902;2023-04-01T02:21:06;3.75;;;1.50;;
38465;SDS011;24244;51.950;5.902;2023-04-01T02:23:38;4.88;;;2.47;;
38465;SDS011;24244;51.950;5.902;2023-04-01T02:26:07;4.78;;;2.03;;
38465;SDS011;24244;51.950;5.902;2023-04-01T02:28:36;6.50;;;2.22;;
38465;SDS011;24244;51.950;5.902;2023-04-01T02:31:05;5.90;;;2.03;;
38465;SDS011;24244;51.950;5.902;2023-04-01T02:33:34;3.88;;;1.70;;
38465;SDS011;24244;51.950;5.902;2023-04-01T02:36:01;5.47;;;1.50;;
38465;SDS011;24244;51.950;5.902;2023-04-01T02:38:28;2.92;;;1.15;;
38465;SDS011;24244;51.950;5.902;2023-04-01T02:40:58;4.93;;;1.80;;
38465;SDS011;24244;51.950;5.902;2023-04-01T02:43:27;3.22;;;1.50;;
38465;SDS011;24244;51.950;5.902;2023-04-01T02:45:54;5.28;;;2.10;;
38465;SDS011;24244;51.950;5.902;2023-04-01T02:48:21;3.03;;;1.60;;
38465;SDS011;24244;51.950;5.902;2023-04-01T02:50:48;3.50;;;1.52;;
38465;SDS011;24244;51.950;5.902;2023-04-01T02:53:15;3.60;;;1.50;;
38465;SDS011;24244;51.950;5.902;2023-04-01T02:55:42;3.78;;;1.63;;
38465;SDS011;24244;51.950;5.902;2023-04-01T02:58:10;4.03;;;1.67;;
38465;SDS011;24244;51.950;5.902;2023-04-01T03:00:38;6.82;;;2.28;;
38465;SDS011;24244;51.950;5.902;2023-04-01T03:03:05;2.70;;;1.20;;
38465;SDS011;24244;51.950;5.902;2023-04-01T03:05:32;3.45;;;1.33;;
38465;SDS011;24244;51.950;5.902;2023-04-01T03:07:59;3.03;;;2.08;;
38465;SDS011;24244;51.950;5.902;2023-04-01T03:10:26;3.53;;;1.75;;
38465;SDS011;24244;51.950;5.902;2023-04-01T03:12:53;2.83;;;1.40;;
38465;SDS011;24244;51.950;5.902;2023-04-01T03:15:21;3.75;;;1.40;;
38465;SDS011;24244;51.950;5.902;2023-04-01T03:17:48;3.45;;;1.40;;
38465;SDS011;24244;51.950;5.902;2023-04-01T03:20:15;3.30;;;1.30;;
38465;SDS011;24244;51.950;5.902;2023-04-01T03:22:42;2.92;;;1.30;;
38465;SDS011;24244;51.950;5.902;2023-04-01T03:25:09;2.88;;;1.75;;
38465;SDS011;24244;51.950;5.902;2023-04-01T03:27:36;3.10;;;1.20;;
38465;SDS011;24244;51.950;5.902;2023-04-01T03:30:04;2.80;;;1.50;;
38465;SDS011;24244;51.950;5.902;2023-04-01T03:32:34;2.63;;;1.20;;
38465;SDS011;24244;51.950;5.902;2023-04-01T03:35:01;2.35;;;1.50;;
38465;SDS011;24244;51.950;5.902;2023-04-01T03:37:28;2.63;;;1.50;;
38465;SDS011;24244;51.950;5.902;2023-04-01T03:39:54;2.40;;;1.23;;
38465;SDS011;24244;51.950;5.902;2023-04-01T03:42:21;3.30;;;2.10;;
38465;SDS011;24244;51.950;5.902;2023-04-01T03:44:48;2.33;;;1.10;;
38465;SDS011;24244;51.950;5.902;2023-04-01T03:47:17;2.97;;;1.65;;
38465;SDS011;24244;51.950;5.902;2023-04-01T03:49:45;2.63;;;1.30;;
38465;SDS011;24244;51.950;5.902;2023-04-01T03:52:12;2.15;;;1.40;;
38465;SDS011;24244;51.950;5.902;2023-04-01T03:54:39;2.70;;;1.10;;
38465;SDS011;24244;51.950;5.902;2023-04-01T03:57:06;3.03;;;1.75;;
38465;SDS011;24244;51.950;5.902;2023-04-01T03:59:33;3.33;;;1.63;;
38465;SDS011;24244;51.950;5.902;2023-04-01T04:02:00;3.50;;;2.20;;
38465;SDS011;24244;51.950;5.902;2023-04-01T04:04:27;2.65;;;1.52;;
38465;SDS011;24244;51.950;5.902;2023-04-01T04:06:55;2.47;;;1.20;;
38465;SDS011;24244;51.950;5.902;2023-04-01T04:09:23;4.35;;;2.08;;
38465;SDS011;24244;51.950;5.902;2023-04-01T04:11:50;2.70;;;1.50;;
38465;SDS011;24244;51.950;5.902;2023-04-01T04:14:17;3.60;;;1.77;;
38465;SDS011;24244;51.950;5.902;2023-04-01T04:16:44;3.67;;;1.95;;
38465;SDS011;24244;51.950;5.902;2023-04-01T04:19:10;2.97;;;1.90;;
38465;SDS011;24244;51.950;5.902;2023-04-01T04:21:37;2.80;;;1.45;;
38465;SDS011;24244;51.950;5.902;2023-04-01T04:24:07;3.33;;;1.50;;
38465;SDS011;24244;51.950;5.902;2023-04-01T04:26:34;3.50;;;1.75;;
38465;SDS011;24244;51.950;5.902;2023-04-01T04:29:02;3.70;;;1.90;;
38465;SDS011;24244;51.950;5.902;2023-04-01T04:31:29;4.63;;;2.50;;
38465;SDS011;24244;51.950;5.902;2023-04-01T04:33:55;3.22;;;1.88;;
38465;SDS011;24244;51.950;5.902;2023-04-01T04:36:22;4.57;;;3.00;;
38465;SDS011;24244;51.950;5.902;2023-04-01T04:38:49;4.28;;;2.60;;
38465;SDS011;24244;51.950;5.902;2023-04-01T04:41:18;4.20;;;2.33;;
38465;SDS011;24244;51.950;5.902;2023-04-01T04:43:48;5.30;;;3.00;;
38465;SDS011;24244;51.950;5.902;2023-04-01T04:46:17;4.28;;;2.58;;
38465;SDS011;24244;51.950;5.902;2023-04-01T04:48:44;5.38;;;3.38;;
38465;SDS011;24244;51.950;5.902;2023-04-01T04:51:12;4.63;;;3.00;;
38465;SDS011;24244;51.950;5.902;2023-04-01T04:53:41;5.03;;;2.38;;
38465;SDS011;24244;51.950;5.902;2023-04-01T04:56:08;5.80;;;2.75;;
38465;SDS011;24244;51.950;5.902;2023-04-01T04:58:36;5.53;;;3.15;;
38465;SDS011;24244;51.950;5.902;2023-04-01T05:01:07;3.85;;;2.70;;
38465;SDS011;24244;51.950;5.902;2023-04-01T05:03:35;4.90;;;2.60;;
38465;SDS011;24244;51.950;5.902;2023-04-01T05:06:02;5.32;;;3.28;;
38465;SDS011;24244;51.950;5.902;2023-04-01T05:08:29;5.25;;;3.05;;
38465;SDS011;24244;51.950;5.902;2023-04-01T05:10:55;6.72;;;3.53;;
38465;SDS011;24244;51.950;5.902;2023-04-01T05:13:22;2.85;;;1.83;;
38465;SDS011;24244;51.950;5.902;2023-04-01T05:15:50;6.13;;;3.08;;
38465;SDS011;24244;51.950;5.902;2023-04-01T05:18:17;5.60;;;3.50;;
38465;SDS011;24244;51.950;5.902;2023-04-01T05:20:47;4.53;;;2.53;;
38465;SDS011;24244;51.950;5.902;2023-04-01T05:23:14;4.57;;;2.80;;
38465;SDS011;24244;51.950;5.902;2023-04-01T05:25:41;4.55;;;2.97;;
38465;SDS011;24244;51.950;5.902;2023-04-01T05:28:08;4.95;;;2.80;;
38465;SDS011;24244;51.950;5.902;2023-04-01T05:30:34;3.88;;;2.05;;
38465;SDS011;24244;51.950;5.902;2023-04-01T05:33:03;4.63;;;2.80;;
38465;SDS011;24244;51.950;5.902;2023-04-01T05:35:29;4.30;;;2.60;;
38465;SDS011;24244;51.950;5.902;2023-04-01T05:37:57;6.13;;;3.60;;
38465;SDS011;24244;51.950;5.902;2023-04-01T05:40:23;5.07;;;3.83;;
38465;SDS011;24244;51.950;5.902;2023-04-01T05:42:50;5.00;;;3.13;;
38465;SDS011;24244;51.950;5.902;2023-04-01T05:45:17;5.60;;;3.50;;
38465;SDS011;24244;51.950;5.902;2023-04-01T05:47:44;4.95;;;3.67;;
38465;SDS011;24244;51.950;5.902;2023-04-01T05:50:12;7.22;;;3.58;;
38465;SDS011;24244;51.950;5.902;2023-04-01T05:52:39;5.07;;;3.20;;
38465;SDS011;24244;51.950;5.902;2023-04-01T05:55:06;5.65;;;2.72;;
38465;SDS011;24244;51.950;5.902;2023-04-01T05:57:33;5.32;;;3.00;;
38465;SDS011;24244;51.950;5.902;2023-04-01T06:00:01;4.15;;;2.72;;
38465;SDS011;24244;51.950;5.902;2023-04-01T06:02:28;4.68;;;2.67;;
38465;SDS011;24244;51.950;5.902;2023-04-01T06:04:59;4.95;;;2.97;;
38465;SDS011;24244;51.950;5.902;2023-04-01T06:07:38;4.47;;;2.72;;
38465;SDS011;24244;51.950;5.902;2023-04-01T06:10:09;4.20;;;2.63;;
38465;SDS011;24244;51.950;5.902;2023-04-01T06:12:40;4.43;;;2.55;;
38465;SDS011;24244;51.950;5.902;2023-04-01T06:15:20;5.03;;;2.75;;
38465;SDS011;24244;51.950;5.902;2023-04-01T06:18:03;4.53;;;2.08;;
38465;SDS011;24244;51.950;5.902;2023-04-01T06:20:47;6.03;;;3.33;;
38465;SDS011;24244;51.950;5.902;2023-04-01T06:23:26;7.38;;;3.85;;
38465;SDS011;24244;51.950;5.902;2023-04-01T06:26:03;7.53;;;4.28;;
38465;SDS011;24244;51.950;5.902;2023-04-01T06:28:50;7.57;;;3.20;;
38465;SDS011;24244;51.950;5.902;2023-04-01T06:31:33;6.00;;;2.42;;
38465;SDS011;24244;51.950;5.902;2023-04-01T06:34:14;6.93;;;2.80;;
38465;SDS011;24244;51.950;5.902;2023-04-01T06:39:53;6.82;;;3.85;;
38465;SDS011;24244;51.950;5.902;2023-04-01T06:42:38;6.28;;;3.15;;
38465;SDS011;24244;51.950;5.902;2023-04-01T06:45:20;5.70;;;2.65;;
38465;SDS011;24244;51.950;5.902;2023-04-01T06:48:04;5.00;;;2.20;;
38465;SDS011;24244;51.950;5.902;2023-04-01T06:51:06;4.93;;;3.03;;
38465;SDS011;24244;51.950;5.902;2023-04-01T06:53:43;4.80;;;2.08;;
38465;SDS011;24244;51.950;5.902;2023-04-01T06:56:22;5.03;;;1.77;;
38465;SDS011;24244;51.950;5.902;2023-04-01T06:58:55;3.83;;;1.80;;
38465;SDS011;24244;51.950;5.902;2023-04-01T07:01:28;4.60;;;2.42;;
38465;SDS011;24244;51.950;5.902;2023-04-01T07:04:00;4.28;;;2.00;;
38465;SDS011;24244;51.950;5.902;2023-04-01T07:06:32;3.67;;;1.60;;
38465;SDS011;24244;51.950;5.902;2023-04-01T07:09:04;3.40;;;1.38;;
38465;SDS011;24244;51.950;5.902;2023-04-01T07:11:37;2.45;;;0.98;;
38465;SDS011;24244;51.950;5.902;2023-04-01T07:14:10;2.65;;;1.35;;
38465;SDS011;24244;51.950;5.902;2023-04-01T07:19:16;2.67;;;1.42;;
38465;SDS011;24244;51.950;5.902;2023-04-01T07:21:47;3.40;;;1.48;;
38465;SDS011;24244;51.950;5.902;2023-04-01T07:24:20;1.92;;;0.93;;
38465;SDS011;24244;51.950;5.902;2023-04-01T07:26:54;2.63;;;0.75;;
38465;SDS011;24244;51.950;5.902;2023-04-01T07:29:22;2.45;;;1.00;;
38465;SDS011;24244;51.950;5.902;2023-04-01T07:31:58;2.03;;;0.88;;
38465;SDS011;24244;51.950;5.902;2023-04-01T07:34:42;2.28;;;0.73;;
38465;SDS011;24244;51.950;5.902;2023-04-01T07:37:17;1.23;;;0.43;;
38465;SDS011;24244;51.950;5.902;2023-04-01T07:39:51;1.50;;;0.52;;
38465;SDS011;24244;51.950;5.902;2023-04-01T07:42:30;2.38;;;0.60;;
38465;SDS011;24244;51.950;5.902;2023-04-01T07:45:09;1.48;;;0.50;;
38465;SDS011;24244;51.950;5.902;2023-04-01T07:47:47;1.92;;;0.70;;
38465;SDS011;24244;51.950;5.902;2023-04-01T07:50:25;1.85;;;1.27;;
38465;SDS011;24244;51.950;5.902;2023-04-01T07:52:56;0.93;;;0.35;;
38465;SDS011;24244;51.950;5.902;2023-04-01T07:55:37;1.27;;;0.68;;
38465;SDS011;24244;51.950;5.902;2023-04-01T07:58:12;1.70;;;0.60;;
38465;SDS011;24244;51.950;5.902;2023-04-01T08:00:48;1.85;;;0.40;;
38465;SDS011;24244;51.950;5.902;2023-04-01T08:03:29;1.63;;;0.95;;
38465;SDS011;24244;51.950;5.902;2023-04-01T08:06:05;1.77;;;0.85;;
38465;SDS011;24244;51.950;5.902;2023-04-01T08:08:43;1.00;;;0.30;;
38465;SDS011;24244;51.950;5.902;2023-04-01T08:11:22;0.95;;;0.30;;
38465;SDS011;24244;51.950;5.902;2023-04-01T08:14:01;1.67;;;0.77;;
38465;SDS011;24244;51.950;5.902;2023-04-01T08:16:35;1.45;;;0.65;;
38465;SDS011;24244;51.950;5.902;2023-04-01T08:19:09;1.48;;;0.60;;
38465;SDS011;24244;51.950;5.902;2023-04-01T08:21:47;1.42;;;0.60;;
38465;SDS011;24244;51.950;5.902;2023-04-01T08:24:22;1.23;;;0.30;;
38465;SDS011;24244;51.950;5.902;2023-04-01T08:27:11;1.33;;;0.60;;
38465;SDS011;24244;51.950;5.902;2023-04-01T08:29:46;1.20;;;0.52;;
38465;SDS011;24244;51.950;5.902;2023-04-01T08:32:18;0.77;;;0.20;;
38465;SDS011;24244;51.950;5.902;2023-04-01T08:34:55;0.68;;;0.20;;
38465;SDS011;24244;51.950;5.902;2023-04-01T08:37:35;0.88;;;0.40;;
38465;SDS011;24244;51.950;5.902;2023-04-01T08:40:11;0.75;;;0.10;;
38465;SDS011;24244;51.950;5.902;2023-04-01T08:42:54;1.13;;;0.38;;
38465;SDS011;24244;51.950;5.902;2023-04-01T08:45:43;1.10;;;0.30;;
38465;SDS011;24244;51.950;5.902;2023-04-01T08:54:19;1.00;;;0.30;;
38465;SDS011;24244;51.950;5.902;2023-04-01T08:57:01;1.23;;;0.50;;
38465;SDS011;24244;51.950;5.902;2023-04-01T08:59:41;1.20;;;0.50;;
38465;SDS011;24244;51.950;5.902;2023-04-01T09:02:25;1.35;;;0.70;;
38465;SDS011;24244;51.950;5.902;2023-04-01T09:08:17;0.88;;;0.57;;
38465;SDS011;24244;51.950;5.902;2023-04-01T09:11:04;1.20;;;0.50;;
38465;SDS011;24244;51.950;5.902;2023-04-01T09:16:46;1.00;;;0.60;;
38465;SDS011;24244;51.950;5.902;2023-04-01T09:19:30;2.15;;;0.22;;
38465;SDS011;24244;51.950;5.902;2023-04-01T09:22:27;1.30;;;0.40;;
38465;SDS011;24244;51.950;5.902;2023-04-01T09:25:08;1.25;;;0.40;;
38465;SDS011;24244;51.950;5.902;2023-04-01T09:27:49;1.33;;;0.30;;
38465;SDS011;24244;51.950;5.902;2023-04-01T09:30:45;0.90;;;0.50;;
38465;SDS011;24244;51.950;5.902;2023-04-01T09:36:43;1.42;;;0.85;;
38465;SDS011;24244;51.950;5.902;2023-04-01T09:39:26;0.93;;;0.30;;
38465;SDS011;24244;51.950;5.902;2023-04-01T09:42:06;1.38;;;0.40;;
38465;SDS011;24244;51.950;5.902;2023-04-01T09:44:42;0.95;;;0.55;;
38465;SDS011;24244;51.950;5.902;2023-04-01T09:47:23;1.75;;;0.75;;
38465;SDS011;24244;51.950;5.902;2023-04-01T09:50:24;1.55;;;0.65;;
38465;SDS011;24244;51.950;5.902;2023-04-01T09:53:17;1.98;;;0.52;;
38465;SDS011;24244;51.950;5.902;2023-04-01T10:02:07;1.80;;;0.90;;
38465;SDS011;24244;51.950;5.902;2023-04-01T10:08:02;1.50;;;0.52;;
38465;SDS011;24244;51.950;5.902;2023-04-01T10:10:47;2.38;;;1.17;;
38465;SDS011;24244;51.950;5.902;2023-04-01T10:14:01;2.28;;;0.73;;
38465;SDS011;24244;51.950;5.902;2023-04-01T10:16:45;1.55;;;0.60;;
38465;SDS011;24244;51.950;5.902;2023-04-01T10:20:08;1.20;;;0.70;;
38465;SDS011;24244;51.950;5.902;2023-04-01T10:22:58;1.60;;;0.93;;
38465;SDS011;24244;51.950;5.902;2023-04-01T10:28:33;2.10;;;1.08;;
38465;SDS011;24244;51.950;5.902;2023-04-01T10:34:40;3.50;;;1.80;;
38465;SDS011;24244;51.950;5.902;2023-04-01T10:40:59;3.33;;;1.70;;
38465;SDS011;24244;51.950;5.902;2023-04-01T10:43:58;3.65;;;1.52;;
38465;SDS011;24244;51.950;5.902;2023-04-01T10:50:32;4.18;;;1.75;;
38465;SDS011;24244;51.950;5.902;2023-04-01T10:53:21;3.17;;;1.90;;
38465;SDS011;24244;51.950;5.902;2023-04-01T11:02:32;4.72;;;2.20;;
38465;SDS011;24244;51.950;5.902;2023-04-01T11:05:53;4.50;;;2.30;;
38465;SDS011;24244;51.950;5.902;2023-04-01T11:15:19;4.00;;;1.98;;
38465;SDS011;24244;51.950;5.902;2023-04-01T11:24:29;3.45;;;1.55;;
38465;SDS011;24244;51.950;5.902;2023-04-01T11:27:44;4.07;;;2.13;;
38465;SDS011;24244;51.950;5.902;2023-04-01T11:30:26;4.22;;;2.10;;
38465;SDS011;24244;51.950;5.902;2023-04-01T11:33:02;4.18;;;1.80;;
38465;SDS011;24244;51.950;5.902;2023-04-01T11:35:50;3.80;;;1.92;;
38465;SDS011;24244;51.950;5.902;2023-04-01T11:38:26;4.53;;;1.23;;
38465;SDS011;24244;51.950;5.902;2023-04-01T11:41:02;4.38;;;2.75;;
38465;SDS011;24244;51.950;5.902;2023-04-01T11:43:54;2.10;;;1.33;;
38465;SDS011;24244;51.950;5.902;2023-04-01T11:46:36;2.10;;;0.70;;
38465;SDS011;24244;51.950;5.902;2023-04-01T11:49:17;2.00;;;0.65;;
38465;SDS011;24244;51.950;5.902;2023-04-01T11:52:18;2.15;;;0.60;;
38465;SDS011;24244;51.950;5.902;2023-04-01T11:58:07;2.30;;;1.10;;
38465;SDS011;24244;51.950;5.902;2023-04-01T12:00:49;1.45;;;0.65;;
38465;SDS011;24244;51.950;5.902;2023-04-01T12:03:36;1.70;;;0.80;;
38465;SDS011;24244;51.950;5.902;2023-04-01T12:06:19;1.30;;;0.40;;
38465;SDS011;24244;51.950;5.902;2023-04-01T12:08:54;1.83;;;0.55;;
38465;SDS011;24244;51.950;5.902;2023-04-01T12:11:29;1.10;;;0.30;;
38465;SDS011;24244;51.950;5.902;2023-04-01T12:14:08;1.50;;;0.70;;
38465;SDS011;24244;51.950;5.902;2023-04-01T12:16:46;1.40;;;0.30;;
38465;SDS011;24244;51.950;5.902;2023-04-01T12:19:25;0.90;;;0.30;;
38465;SDS011;24244;51.950;5.902;2023-04-01T12:24:56;0.60;;;0.20;;
38465;SDS011;24244;51.950;5.902;2023-04-01T12:27:35;0.85;;;0.30;;
38465;SDS011;24244;51.950;5.902;2023-04-01T12:36:35;1.08;;;0.50;;
38465;SDS011;24244;51.950;5.902;2023-04-01T12:42:21;1.27;;;0.45;;
38465;SDS011;24244;51.950;5.902;2023-04-01T12:45:07;0.65;;;0.32;;
38465;SDS011;24244;51.950;5.902;2023-04-01T12:51:07;1.33;;;0.60;;
38465;SDS011;24244;51.950;5.902;2023-04-01T12:54:07;2.28;;;1.08;;
38465;SDS011;24244;51.950;5.902;2023-04-01T12:56:56;1.27;;;0.60;;
38465;SDS011;24244;51.950;5.902;2023-04-01T12:59:36;2.00;;;0.57;;
38465;SDS011;24244;51.950;5.902;2023-04-01T13:02:13;1.17;;;0.57;;
38465;SDS011;24244;51.950;5.902;2023-04-01T13:08:10;2.17;;;0.90;;
38465;SDS011;24244;51.950;5.902;2023-04-01T13:10:55;1.75;;;0.70;;
38465;SDS011;24244;51.950;5.902;2023-04-01T13:13:39;2.03;;;0.95;;
38465;SDS011;24244;51.950;5.902;2023-04-01T13:16:27;1.50;;;0.80;;
38465;SDS011;24244;51.950;5.902;2023-04-01T13:18:59;2.10;;;0.90;;
38465;SDS011;24244;51.950;5.902;2023-04-01T13:21:34;2.55;;;0.85;;
38465;SDS011;24244;51.950;5.902;2023-04-01T13:24:25;2.17;;;0.60;;
38465;SDS011;24244;51.950;5.902;2023-04-01T13:27:05;1.90;;;0.98;;
38465;SDS011;24244;51.950;5.902;2023-04-01T13:29:39;2.10;;;0.93;;
38465;SDS011;24244;51.950;5.902;2023-04-01T13:32:16;3.00;;;1.00;;
38465;SDS011;24244;51.950;5.902;2023-04-01T13:35:16;2.35;;;1.08;;
38465;SDS011;24244;51.950;5.902;2023-04-01T13:37:52;2.13;;;0.93;;
38465;SDS011;24244;51.950;5.902;2023-04-01T13:40:40;2.40;;;1.20;;
38465;SDS011;24244;51.950;5.902;2023-04-01T13:43:30;2.42;;;1.10;;
38465;SDS011;24244;51.950;5.902;2023-04-01T13:46:06;2.58;;;1.20;;
38465;SDS011;24244;51.950;5.902;2023-04-01T13:48:50;3.05;;;0.90;;
38465;SDS011;24244;51.950;5.902;2023-04-01T13:51:47;2.22;;;0.80;;
38465;SDS011;24244;51.950;5.902;2023-04-01T13:54:25;2.03;;;1.05;;
38465;SDS011;24244;51.950;5.902;2023-04-01T13:57:06;3.78;;;0.95;;
38465;SDS011;24244;51.950;5.902;2023-04-01T14:03:00;2.03;;;0.95;;
38465;SDS011;24244;51.950;5.902;2023-04-01T14:05:47;2.53;;;0.93;;
38465;SDS011;24244;51.950;5.902;2023-04-01T14:08:26;1.98;;;0.68;;
38465;SDS011;24244;51.950;5.902;2023-04-01T14:11:07;1.33;;;0.70;;
38465;SDS011;24244;51.950;5.902;2023-04-01T14:13:43;1.55;;;0.60;;
38465;SDS011;24244;51.950;5.902;2023-04-01T14:16:47;1.17;;;0.50;;
38465;SDS011;24244;51.950;5.902;2023-04-01T14:22:32;1.00;;;0.50;;
38465;SDS011;24244;51.950;5.902;2023-04-01T14:25:20;0.90;;;0.52;;
38465;SDS011;24244;51.950;5.902;2023-04-01T14:28:03;1.10;;;0.75;;
38465;SDS011;24244;51.950;5.902;2023-04-01T14:30:45;1.02;;;0.55;;
38465;SDS011;24244;51.950;5.902;2023-04-01T14:33:32;1.23;;;0.32;;
38465;SDS011;24244;51.950;5.902;2023-04-01T14:36:18;1.73;;;0.80;;
38465;SDS011;24244;51.950;5.902;2023-04-01T14:39:07;1.10;;;0.32;;
38465;SDS011;24244;51.950;5.902;2023-04-01T14:41:48;1.30;;;0.60;;
38465;SDS011;24244;51.950;5.902;2023-04-01T14:44:23;1.40;;;0.80;;
38465;SDS011;24244;51.950;5.902;2023-04-01T14:50:12;1.38;;;0.65;;
38465;SDS011;24244;51.950;5.902;2023-04-01T14:52:44;1.80;;;0.80;;
38465;SDS011;24244;51.950;5.902;2023-04-01T14:55:25;1.30;;;0.68;;
38465;SDS011;24244;51.950;5.902;2023-04-01T14:57:58;1.85;;;0.70;;
38465;SDS011;24244;51.950;5.902;2023-04-01T15:00:40;1.30;;;0.50;;
38465;SDS011;24244;51.950;5.902;2023-04-01T15:03:17;0.95;;;0.20;;
38465;SDS011;24244;51.950;5.902;2023-04-01T15:05:51;1.35;;;0.50;;
38465;SDS011;24244;51.950;5.902;2023-04-01T15:08:23;0.75;;;0.30;;
38465;SDS011;24244;51.950;5.902;2023-04-01T15:13:58;1.02;;;0.32;;
38465;SDS011;24244;51.950;5.902;2023-04-01T15:16:41;1.05;;;0.60;;
38465;SDS011;24244;51.950;5.902;2023-04-01T15:19:19;0.68;;;0.20;;
38465;SDS011;24244;51.950;5.902;2023-04-01T15:24:56;1.00;;;0.50;;
38465;SDS011;24244;51.950;5.902;2023-04-01T15:27:41;1.02;;;0.20;;
38465;SDS011;24244;51.950;5.902;2023-04-01T15:30:27;0.73;;;0.30;;
38465;SDS011;24244;51.950;5.902;2023-04-01T15:33:03;0.47;;;0.20;;
38465;SDS011;24244;51.950;5.902;2023-04-01T15:35:45;1.90;;;0.63;;
38465;SDS011;24244;51.950;5.902;2023-04-01T15:38:20;2.42;;;1.23;;
38465;SDS011;24244;51.950;5.902;2023-04-01T15:40:59;2.17;;;0.82;;
38465;SDS011;24244;51.950;5.902;2023-04-01T15:43:33;3.30;;;1.55;;
38465;SDS011;24244;51.950;5.902;2023-04-01T15:49:15;2.95;;;1.65;;
38465;SDS011;24244;51.950;5.902;2023-04-01T15:52:07;2.83;;;1.42;;
38465;SDS011;24244;51.950;5.902;2023-04-01T15:57:45;2.65;;;1.38;;
38465;SDS011;24244;51.950;5.902;2023-04-01T16:00:27;2.80;;;1.38;;
38465;SDS011;24244;51.950;5.902;2023-04-01T16:06:01;1.90;;;0.80;;
38465;SDS011;24244;51.950;5.902;2023-04-01T16:08:48;2.53;;;1.65;;
38465;SDS011;24244;51.950;5.902;2023-04-01T16:11:30;2.65;;;1.50;;
38465;SDS011;24244;51.950;5.902;2023-04-01T16:14:14;2.53;;;1.20;;
38465;SDS011;24244;51.950;5.902;2023-04-01T16:16:57;2.67;;;1.30;;
38465;SDS011;24244;51.950;5.902;2023-04-01T16:19:49;2.35;;;1.30;;
38465;SDS011;24244;51.950;5.902;2023-04-01T16:22:20;2.85;;;1.50;;
38465;SDS011;24244;51.950;5.902;2023-04-01T16:24:54;2.92;;;1.50;;
38465;SDS011;24244;51.950;5.902;2023-04-01T16:27:29;2.65;;;1.40;;
38465;SDS011;24244;51.950;5.902;2023-04-01T16:30:16;2.70;;;1.90;;
38465;SDS011;24244;51.950;5.902;2023-04-01T16:32:57;2.42;;;1.23;;
38465;SDS011;24244;51.950;5.902;2023-04-01T16:35:33;2.63;;;1.55;;
38465;SDS011;24244;51.950;5.902;2023-04-01T16:38:09;2.22;;;1.27;;
38465;SDS011;24244;51.950;5.902;2023-04-01T16:40:44;2.25;;;1.30;;
38465;SDS011;24244;51.950;5.902;2023-04-01T16:43:20;3.47;;;1.98;;
38465;SDS011;24244;51.950;5.902;2023-04-01T16:45:53;2.30;;;1.33;;
38465;SDS011;24244;51.950;5.902;2023-04-01T16:48:49;2.50;;;1.10;;
38465;SDS011;24244;51.950;5.902;2023-04-01T16:51:25;2.80;;;1.40;;
38465;SDS011;24244;51.950;5.902;2023-04-01T16:54:02;2.38;;;1.23;;
38465;SDS011;24244;51.950;5.902;2023-04-01T16:56:38;3.17;;;1.70;;
38465;SDS011;24244;51.950;5.902;2023-04-01T16:59:13;2.60;;;1.50;;
38465;SDS011;24244;51.950;5.902;2023-04-01T17:01:44;3.25;;;1.40;;
38465;SDS011;24244;51.950;5.902;2023-04-01T17:04:21;2.80;;;1.75;;
38465;SDS011;24244;51.950;5.902;2023-04-01T17:06:57;3.67;;;1.60;;
38465;SDS011;24244;51.950;5.902;2023-04-01T17:09:37;3.08;;;1.80;;
38465;SDS011;24244;51.950;5.902;2023-04-01T17:12:17;2.67;;;1.35;;
38465;SDS011;24244;51.950;5.902;2023-04-01T17:14:52;3.05;;;1.40;;
38465;SDS011;24244;51.950;5.902;2023-04-01T17:17:37;2.60;;;1.70;;
38465;SDS011;24244;51.950;5.902;2023-04-01T17:20:17;3.15;;;1.77;;
38465;SDS011;24244;51.950;5.902;2023-04-01T17:22:53;3.83;;;1.83;;
38465;SDS011;24244;51.950;5.902;2023-04-01T17:25:28;3.70;;;1.92;;
38465;SDS011;24244;51.950;5.902;2023-04-01T17:28:09;4.15;;;2.50;;
38465;SDS011;24244;51.950;5.902;2023-04-01T17:30:47;3.53;;;2.10;;
38465;SDS011;24244;51.950;5.902;2023-04-01T17:33:31;3.75;;;2.40;;
38465;SDS011;24244;51.950;5.902;2023-04-01T17:36:15;4.22;;;2.33;;